createdAt,value
2022-08-17T00:00:59.833Z,21.01
2022-08-17T00:02:01.476Z,21.08
2022-08-17T00:03:17.432Z,21.10
2022-08-17T00:04:19.696Z,21.09
2022-08-17T00:05:21.168Z,21.10
2022-08-17T00:06:28.891Z,21.11
2022-08-17T00:07:30.389Z,21.16
2022-08-17T00:08:38.533Z,21.17
2022-08-17T00:09:39.993Z,21.16
2022-08-17T00:10:44.669Z,21.13
2022-08-17T00:12:40.576Z,21.06
2022-08-17T00:13:13.992Z,21.03
2022-08-17T00:14:18.102Z,20.99
2022-08-17T00:15:22.060Z,21.02
2022-08-17T00:16:50.379Z,21.04
2022-08-17T00:17:52.516Z,21.01
2022-08-17T00:19:07.666Z,21.01
2022-08-17T00:20:10.796Z,21.07
2022-08-17T00:21:13.600Z,21.10
2022-08-17T00:22:35.151Z,21.09
2022-08-17T00:23:36.658Z,21.12
2022-08-17T00:24:38.130Z,21.08
2022-08-17T00:25:41.901Z,21.06
2022-08-17T00:26:44.750Z,21.11
2022-08-17T00:27:47.117Z,21.08
2022-08-17T00:28:48.786Z,21.04
2022-08-17T00:29:53.404Z,21.04
2022-08-17T00:30:54.994Z,21.04
2022-08-17T00:31:56.449Z,21.04
2022-08-17T00:33:22.742Z,21.08
2022-08-17T00:34:20.019Z,21.15
2022-08-17T00:35:23.373Z,21.16
2022-08-17T00:36:25.407Z,21.19
2022-08-17T00:37:26.903Z,21.16
2022-08-17T00:38:29.767Z,21.20
2022-08-17T00:39:31.329Z,21.17
2022-08-17T00:40:44.548Z,21.18
2022-08-17T00:41:46.617Z,21.15
2022-08-17T00:42:49.005Z,21.07
2022-08-17T00:44:00.058Z,21.04
2022-08-17T00:45:02.150Z,21.07
2022-08-17T00:46:08.622Z,21.08
2022-08-17T00:47:10.102Z,21.10
2022-08-17T00:48:28.932Z,21.14
2022-08-17T00:49:31.821Z,21.17
2022-08-17T00:50:34.521Z,21.13
2022-08-17T00:51:45.921Z,21.16
2022-08-17T00:52:54.079Z,21.14
2022-08-17T00:54:05.036Z,21.10
2022-08-17T00:55:08.084Z,21.14
2022-08-17T00:56:16.680Z,21.10
2022-08-17T00:57:21.385Z,21.10
2022-08-17T00:58:28.714Z,21.14
2022-08-17T00:59:43.777Z,21.15
2022-08-17T01:00:47.144Z,21.11
2022-08-17T01:01:50.755Z,21.08
2022-08-17T01:02:57.482Z,21.01
2022-08-17T01:04:00.001Z,20.93
2022-08-17T01:05:01.735Z,20.83
2022-08-17T01:06:05.279Z,20.76
2022-08-17T01:07:07.686Z,20.71
2022-08-17T01:08:13.385Z,20.70
2022-08-17T01:09:16.504Z,20.67
2022-08-17T01:11:00.534Z,20.63
2022-08-17T01:11:45.991Z,20.68
2022-08-17T01:12:47.491Z,20.70
2022-08-17T01:13:49.105Z,20.73
2022-08-17T01:14:50.567Z,20.73
2022-08-17T01:16:00.062Z,20.74
2022-08-17T01:17:01.590Z,20.74
2022-08-17T01:18:05.237Z,20.67
2022-08-17T01:19:14.880Z,20.62
2022-08-17T01:20:16.357Z,20.60
2022-08-17T01:21:24.613Z,20.62
2022-08-17T01:22:26.746Z,20.62
2022-08-17T01:23:28.234Z,20.57
2022-08-17T01:24:30.543Z,20.50
2022-08-17T01:25:35.915Z,20.49
2022-08-17T01:26:39.204Z,20.50
2022-08-17T01:27:42.687Z,20.53
2022-08-17T01:28:54.586Z,20.54
2022-08-17T01:30:02.433Z,20.49
2022-08-17T01:31:06.905Z,20.44
2022-08-17T01:32:08.816Z,20.36
2022-08-17T01:33:10.885Z,20.28
2022-08-17T01:34:14.859Z,20.26
2022-08-17T01:35:16.582Z,20.21
2022-08-17T01:36:18.335Z,20.18
2022-08-17T01:37:27.497Z,20.17
2022-08-17T01:38:29.030Z,20.18
2022-08-17T01:39:35.457Z,20.16
2022-08-17T01:40:42.962Z,20.17
2022-08-17T01:41:46.455Z,20.15
2022-08-17T01:43:00.450Z,20.20
2022-08-17T01:44:05.160Z,20.22
2022-08-17T01:45:15.162Z,20.27
2022-08-17T01:46:23.388Z,20.32
2022-08-17T01:47:24.899Z,20.36
2022-08-17T01:48:31.785Z,20.40
2022-08-17T01:49:33.302Z,20.38
2022-08-17T01:50:36.161Z,20.40
2022-08-17T01:51:38.924Z,20.42
2022-08-17T01:52:40.942Z,20.46
2022-08-17T01:53:47.813Z,20.47
2022-08-17T01:54:51.438Z,20.46
2022-08-17T01:55:57.715Z,20.43
2022-08-17T01:56:59.178Z,20.46
2022-08-17T01:58:00.671Z,20.46
2022-08-17T01:59:04.892Z,20.48
2022-08-17T02:00:08.744Z,20.57
2022-08-17T02:01:13.251Z,20.62
2022-08-17T02:02:31.044Z,20.58
2022-08-17T02:03:35.185Z,20.48
2022-08-17T02:04:36.716Z,20.37
2022-08-17T02:05:39.028Z,20.42
2022-08-17T02:06:43.977Z,20.45
2022-08-17T02:08:00.334Z,20.45
2022-08-17T02:09:03.856Z,20.48
2022-08-17T02:10:07.057Z,20.56
2022-08-17T02:11:21.971Z,20.59
2022-08-17T02:12:38.057Z,20.55
2022-08-17T02:13:42.801Z,20.48
2022-08-17T02:14:44.534Z,20.43
2022-08-17T02:15:46.458Z,20.42
2022-08-17T02:16:48.024Z,20.37
2022-08-17T02:17:49.519Z,20.35
2022-08-17T02:18:56.381Z,20.27
2022-08-17T02:19:57.846Z,20.36
2022-08-17T02:20:59.746Z,20.27
2022-08-17T02:22:01.370Z,20.10
2022-08-17T02:23:04.803Z,19.94
2022-08-17T02:24:13.616Z,19.85
2022-08-17T02:25:18.232Z,19.87
2022-08-17T02:26:26.321Z,19.90
2022-08-17T02:27:28.908Z,19.96
2022-08-17T02:28:30.486Z,19.96
2022-08-17T02:29:31.939Z,19.95
2022-08-17T02:31:02.201Z,19.95
2022-08-17T02:31:54.999Z,20.04
2022-08-17T02:32:56.508Z,20.10
2022-08-17T02:34:03.830Z,20.06
2022-08-17T02:35:07.445Z,20.02
2022-08-17T02:36:09.592Z,19.99
2022-08-17T02:37:11.263Z,19.92
2022-08-17T02:38:12.731Z,19.88
2022-08-17T02:39:14.433Z,19.87
2022-08-17T02:40:17.190Z,19.82
2022-08-17T02:41:38.937Z,19.78
2022-08-17T02:42:42.365Z,19.77
2022-08-17T02:43:43.861Z,19.75
2022-08-17T02:44:45.331Z,19.77
2022-08-17T02:45:46.775Z,19.82
2022-08-17T02:46:48.253Z,19.80
2022-08-17T02:47:50.311Z,19.76
2022-08-17T02:48:51.766Z,19.76
2022-08-17T02:49:55.441Z,19.79
2022-08-17T02:50:57.578Z,19.80
2022-08-17T02:51:59.052Z,19.81
2022-08-17T02:53:01.607Z,19.80
2022-08-17T02:54:38.952Z,19.79
2022-08-17T02:55:28.803Z,19.78
2022-08-17T02:56:30.238Z,19.78
2022-08-17T02:57:31.734Z,19.80
2022-08-17T02:58:35.486Z,19.89
2022-08-17T02:59:39.030Z,19.93
2022-08-17T03:00:43.956Z,19.96
2022-08-17T03:01:45.521Z,19.94
2022-08-17T03:02:48.116Z,19.89
2022-08-17T03:03:49.848Z,19.88
2022-08-17T03:04:51.345Z,19.84
2022-08-17T03:05:52.822Z,19.84
2022-08-17T03:06:54.319Z,19.92
2022-08-17T03:07:56.619Z,19.93
2022-08-17T03:08:58.253Z,19.86
2022-08-17T03:09:59.718Z,19.71
2022-08-17T03:11:01.187Z,19.60
2022-08-17T03:12:11.457Z,19.66
2022-08-17T03:13:14.358Z,19.71
2022-08-17T03:14:15.848Z,19.73
2022-08-17T03:15:22.687Z,19.75
2022-08-17T03:16:24.134Z,19.77
2022-08-17T03:17:25.644Z,19.80
2022-08-17T03:18:27.294Z,19.83
2022-08-17T03:19:28.788Z,19.86
2022-08-17T03:20:32.038Z,19.87
2022-08-17T03:21:33.534Z,19.87
2022-08-17T03:22:48.089Z,19.90
2022-08-17T03:23:54.918Z,19.91
2022-08-17T03:24:56.845Z,19.96
2022-08-17T03:25:59.062Z,19.93
2022-08-17T03:27:00.543Z,19.88
2022-08-17T03:28:03.064Z,19.85
2022-08-17T03:29:04.563Z,19.83
2022-08-17T03:30:07.944Z,19.79
2022-08-17T03:31:09.554Z,19.82
2022-08-17T03:32:16.227Z,19.83
2022-08-17T03:33:18.858Z,19.83
2022-08-17T03:34:20.353Z,19.83
2022-08-17T03:35:25.193Z,19.78
2022-08-17T03:36:26.759Z,19.79
2022-08-17T03:37:28.260Z,19.71
2022-08-17T03:38:29.793Z,19.69
2022-08-17T03:39:40.978Z,19.68
2022-08-17T03:40:56.259Z,19.66
2022-08-17T03:42:14.303Z,19.64
2022-08-17T03:43:34.004Z,19.69
2022-08-17T03:44:35.747Z,19.70
2022-08-17T03:45:38.074Z,19.63
2022-08-17T03:46:40.051Z,19.58
2022-08-17T03:47:41.712Z,19.57
2022-08-17T03:48:44.970Z,19.56
2022-08-17T03:49:46.430Z,19.58
2022-08-17T03:50:47.917Z,19.55
2022-08-17T03:51:49.665Z,19.54
2022-08-17T03:52:51.930Z,19.55
2022-08-17T03:53:57.985Z,19.52
2022-08-17T03:54:59.467Z,19.48
2022-08-17T03:56:02.608Z,19.50
2022-08-17T03:57:09.370Z,19.56
2022-08-17T03:58:10.844Z,19.65
2022-08-17T03:59:21.048Z,19.65
2022-08-17T04:00:24.064Z,19.60
2022-08-17T04:01:25.626Z,19.52
2022-08-17T04:02:30.987Z,19.55
2022-08-17T04:03:32.675Z,19.59
2022-08-17T04:04:34.749Z,19.59
2022-08-17T04:05:36.221Z,19.63
2022-08-17T04:06:37.809Z,19.78
2022-08-17T04:07:39.289Z,19.82
2022-08-17T04:08:40.756Z,19.85
2022-08-17T04:09:42.313Z,19.86
2022-08-17T04:10:45.090Z,19.76
2022-08-17T04:11:47.007Z,19.66
2022-08-17T04:12:51.878Z,19.57
2022-08-17T04:13:53.615Z,19.52
2022-08-17T04:14:55.372Z,19.44
2022-08-17T04:15:56.937Z,19.48
2022-08-17T04:16:58.406Z,19.62
2022-08-17T04:18:00.192Z,19.66
2022-08-17T04:19:02.657Z,19.64
2022-08-17T04:20:04.966Z,19.54
2022-08-17T04:21:09.198Z,19.53
2022-08-17T04:22:10.698Z,19.55
2022-08-17T04:23:32.167Z,19.56
2022-08-17T04:24:33.920Z,19.54
2022-08-17T04:25:37.761Z,19.60
2022-08-17T04:26:52.877Z,19.62
2022-08-17T04:27:56.811Z,19.62
2022-08-17T04:28:58.791Z,19.54
2022-08-17T04:30:00.737Z,19.50
2022-08-17T04:31:02.269Z,19.53
2022-08-17T04:32:04.178Z,19.59
2022-08-17T04:33:15.480Z,19.63
2022-08-17T04:34:19.719Z,19.65
2022-08-17T04:35:28.476Z,19.71
2022-08-17T04:36:30.202Z,19.74
2022-08-17T04:37:31.669Z,19.78
2022-08-17T04:38:36.103Z,19.83
2022-08-17T04:39:37.647Z,19.85
2022-08-17T04:40:39.820Z,19.89
2022-08-17T04:41:41.301Z,19.97
2022-08-17T04:42:44.876Z,20.04
2022-08-17T04:43:49.067Z,20.10
2022-08-17T04:44:50.537Z,20.14
2022-08-17T04:45:56.886Z,20.20
2022-08-17T04:46:58.663Z,20.21
2022-08-17T04:48:01.297Z,20.28
2022-08-17T04:49:08.921Z,20.33
2022-08-17T04:50:10.411Z,20.40
2022-08-17T04:51:54.501Z,20.38
2022-08-17T04:52:57.435Z,20.43
2022-08-17T04:54:02.806Z,20.48
2022-08-17T04:55:04.878Z,20.56
2022-08-17T04:56:07.391Z,20.61
2022-08-17T04:57:13.417Z,20.67
2022-08-17T04:58:14.917Z,20.72
2022-08-17T04:59:20.061Z,20.74
2022-08-17T05:00:21.595Z,20.82
2022-08-17T05:01:25.501Z,20.86
2022-08-17T05:02:26.979Z,20.90
2022-08-17T05:03:29.022Z,20.93
2022-08-17T05:04:34.089Z,20.95
2022-08-17T05:05:39.497Z,20.96
2022-08-17T05:06:40.962Z,21.00
2022-08-17T05:07:42.447Z,21.08
2022-08-17T05:08:43.891Z,21.10
2022-08-17T05:09:45.433Z,21.15
2022-08-17T05:10:48.104Z,21.19
2022-08-17T05:11:49.655Z,21.30
2022-08-17T05:13:02.545Z,21.36
2022-08-17T05:14:04.302Z,21.41
2022-08-17T05:15:11.575Z,21.51
2022-08-17T05:16:13.053Z,21.65
2022-08-17T05:17:14.745Z,21.72
2022-08-17T05:18:16.838Z,21.76
2022-08-17T05:19:18.297Z,21.80
2022-08-17T05:20:20.082Z,21.84
2022-08-17T05:21:22.927Z,21.93
2022-08-17T05:22:24.390Z,21.97
2022-08-17T05:23:37.830Z,21.96
2022-08-17T05:24:53.353Z,22.15
2022-08-17T05:25:57.001Z,22.44
2022-08-17T05:27:06.194Z,22.64
2022-08-17T05:28:09.437Z,22.78
2022-08-17T05:29:11.058Z,22.91
2022-08-17T05:30:13.517Z,23.11
2022-08-17T05:31:16.370Z,23.36
2022-08-17T05:32:38.580Z,23.46
2022-08-17T05:33:44.528Z,23.60
2022-08-17T05:34:48.177Z,23.78
2022-08-17T05:35:52.714Z,24.06
2022-08-17T05:36:54.201Z,24.27
2022-08-17T05:37:56.721Z,24.49
2022-08-17T05:38:59.226Z,24.74
2022-08-17T05:40:00.882Z,24.92
2022-08-17T05:41:05.246Z,25.02
2022-08-17T05:42:06.721Z,24.94
2022-08-17T05:43:16.396Z,24.93
2022-08-17T05:44:17.861Z,25.16
2022-08-17T05:45:39.988Z,25.48
2022-08-17T05:46:48.808Z,25.78
2022-08-17T05:47:51.015Z,26.06
2022-08-17T05:49:03.619Z,26.33
2022-08-17T05:50:10.354Z,26.47
2022-08-17T05:51:26.255Z,26.68
2022-08-17T05:52:47.631Z,26.86
2022-08-17T05:53:58.093Z,26.65
2022-08-17T05:54:59.492Z,26.35
2022-08-17T05:56:30.702Z,26.26
2022-08-17T05:57:53.698Z,26.33
2022-08-17T05:59:09.130Z,26.65
2022-08-17T06:00:16.273Z,26.78
2022-08-17T06:01:48.628Z,26.73
2022-08-17T06:02:54.753Z,26.57
2022-08-17T06:04:23.858Z,26.61
2022-08-17T06:06:08.957Z,26.78
2022-08-17T06:07:49.493Z,26.86
2022-08-17T06:08:55.706Z,26.97
2022-08-17T06:10:08.156Z,26.86
2022-08-17T06:11:28.424Z,26.78
2022-08-17T06:12:44.017Z,26.45
2022-08-17T06:13:57.381Z,26.45
2022-08-17T06:15:21.537Z,26.59
2022-08-17T06:16:34.302Z,26.56
2022-08-17T06:17:36.862Z,26.52
2022-08-17T06:19:23.366Z,26.44
2022-08-17T06:20:27.235Z,26.32
2022-08-17T06:21:34.895Z,26.41
2022-08-17T06:22:44.062Z,26.46
2022-08-17T06:23:55.048Z,26.42
2022-08-17T06:25:01.740Z,26.31
2022-08-17T06:26:12.632Z,26.29
2022-08-17T06:27:31.547Z,26.21
2022-08-17T06:28:46.809Z,26.30
2022-08-17T06:30:22.469Z,26.24
2022-08-17T06:31:28.374Z,26.28
2022-08-17T06:32:29.871Z,26.38
2022-08-17T06:33:38.231Z,26.51
2022-08-17T06:34:42.497Z,26.57
2022-08-17T06:36:02.944Z,26.55
2022-08-17T06:37:26.941Z,26.65
2022-08-17T06:38:59.575Z,26.71
2022-08-17T06:40:27.583Z,26.65
2022-08-17T06:41:52.328Z,26.72
2022-08-17T06:43:26.882Z,26.84
2022-08-17T06:44:51.198Z,26.78
2022-08-17T06:45:59.051Z,26.77
2022-08-17T06:47:08.301Z,26.87
2022-08-17T06:48:33.533Z,26.97
2022-08-17T06:49:44.976Z,27.11
2022-08-17T06:50:48.907Z,27.24
2022-08-17T06:51:57.043Z,27.30
2022-08-17T06:53:26.581Z,27.33
2022-08-17T06:54:37.274Z,27.32
2022-08-17T06:55:44.789Z,27.31
2022-08-17T06:57:00.477Z,27.36
2022-08-17T06:58:09.397Z,27.49
2022-08-17T06:59:21.772Z,27.44
2022-08-17T07:00:27.966Z,27.50
2022-08-17T07:01:33.665Z,27.54
2022-08-17T07:02:59.112Z,27.58
2022-08-17T07:04:15.276Z,27.69
2022-08-17T07:05:19.157Z,27.78
2022-08-17T07:06:37.700Z,27.69
2022-08-17T07:07:44.547Z,27.47
2022-08-17T07:09:03.188Z,27.51
2022-08-17T07:10:06.070Z,27.60
2022-08-17T07:11:13.668Z,27.78
2022-08-17T07:12:19.334Z,27.87
2022-08-17T07:13:31.181Z,27.98
2022-08-17T07:14:43.071Z,28.09
2022-08-17T07:15:44.991Z,28.18
2022-08-17T07:16:50.212Z,28.24
2022-08-17T07:17:51.736Z,28.33
2022-08-17T07:18:55.538Z,28.42
2022-08-17T07:20:03.490Z,28.52
2022-08-17T07:21:19.200Z,28.60
2022-08-17T07:22:53.502Z,28.68
2022-08-17T07:24:29.683Z,28.86
2022-08-17T07:25:32.473Z,28.89
2022-08-17T07:26:33.954Z,28.87
2022-08-17T07:27:39.052Z,28.95
2022-08-17T07:28:42.853Z,29.07
2022-08-17T07:30:10.578Z,29.10
2022-08-17T07:31:12.511Z,29.08
2022-08-17T07:32:16.838Z,29.04
2022-08-17T07:33:22.727Z,29.07
2022-08-17T07:34:24.189Z,29.09
2022-08-17T07:35:41.012Z,29.16
2022-08-17T07:36:43.025Z,29.27
2022-08-17T07:37:52.287Z,29.26
2022-08-17T07:38:57.716Z,29.29
2022-08-17T07:40:16.282Z,29.38
2022-08-17T07:41:20.703Z,29.47
2022-08-17T07:42:22.253Z,29.51
2022-08-17T07:43:25.973Z,29.63
2022-08-17T07:44:27.911Z,29.66
2022-08-17T07:45:30.897Z,29.65
2022-08-17T07:46:35.358Z,29.70
2022-08-17T07:47:36.883Z,29.74
2022-08-17T07:48:40.782Z,29.86
2022-08-17T07:49:44.349Z,29.87
2022-08-17T07:50:49.711Z,29.80
2022-08-17T07:51:52.060Z,29.67
2022-08-17T07:52:53.623Z,29.71
2022-08-17T07:54:13.556Z,29.69
2022-08-17T07:55:30.085Z,29.68
2022-08-17T07:56:38.351Z,29.65
2022-08-17T07:57:39.891Z,29.71
2022-08-17T07:58:41.352Z,29.83
2022-08-17T08:00:03.993Z,29.94
2022-08-17T08:01:15.179Z,29.96
2022-08-17T08:02:31.658Z,29.99
2022-08-17T08:03:42.396Z,30.06
2022-08-17T08:05:03.744Z,30.08
2022-08-17T08:06:23.127Z,30.06
2022-08-17T08:07:37.376Z,30.13
2022-08-17T08:08:43.287Z,30.13
2022-08-17T08:10:01.432Z,30.13
2022-08-17T08:11:13.204Z,30.09
2022-08-17T08:12:24.760Z,30.13
2022-08-17T08:13:36.222Z,30.18
2022-08-17T08:14:37.712Z,30.12
2022-08-17T08:15:53.653Z,30.09
2022-08-17T08:17:03.708Z,30.14
2022-08-17T08:18:39.678Z,30.28
2022-08-17T08:19:42.027Z,30.42
2022-08-17T08:20:53.910Z,30.55
2022-08-17T08:22:04.133Z,30.63
2022-08-17T08:23:39.399Z,30.66
2022-08-17T08:25:03.401Z,30.66
2022-08-17T08:26:24.125Z,30.71
2022-08-17T08:27:44.316Z,30.76
2022-08-17T08:29:07.778Z,30.68
2022-08-17T08:30:13.680Z,30.73
2022-08-17T08:31:27.396Z,30.70
2022-08-17T08:32:50.591Z,30.70
2022-08-17T08:35:00.538Z,30.78
2022-08-17T08:37:16.028Z,30.92
2022-08-17T08:37:53.992Z,30.72
2022-08-17T08:39:15.316Z,30.50
2022-08-17T08:40:40.173Z,30.69
2022-08-17T08:41:57.810Z,30.84
2022-08-17T08:43:11.270Z,30.95
2022-08-17T08:45:00.689Z,31.09
2022-08-17T08:46:16.042Z,31.17
2022-08-17T08:47:21.250Z,31.17
2022-08-17T08:49:10.150Z,31.24
2022-08-17T08:50:42.470Z,31.30
2022-08-17T08:51:56.093Z,31.33
2022-08-17T08:53:03.741Z,31.29
2022-08-17T08:54:45.667Z,31.38
2022-08-17T08:56:38.476Z,31.35
2022-08-17T08:57:59.956Z,31.45
2022-08-17T08:59:20.829Z,31.51
2022-08-17T09:00:25.558Z,31.65
2022-08-17T09:01:53.718Z,31.62
2022-08-17T09:03:52.396Z,31.65
2022-08-17T09:05:14.347Z,31.57
2022-08-17T09:06:33.301Z,31.61
2022-08-17T09:07:47.508Z,31.59
2022-08-17T09:09:07.502Z,31.66
2022-08-17T09:10:39.620Z,31.74
2022-08-17T09:12:15.553Z,31.79
2022-08-17T09:13:46.549Z,31.76
2022-08-17T09:15:09.449Z,31.75
2022-08-17T09:16:27.798Z,31.85
2022-08-17T09:17:47.179Z,31.99
2022-08-17T09:19:01.609Z,32.12
2022-08-17T09:20:28.533Z,32.27
2022-08-17T09:21:59.348Z,32.40
2022-08-17T09:23:26.940Z,32.53
2022-08-17T09:24:39.318Z,32.59
2022-08-17T09:25:54.615Z,32.58
2022-08-17T09:27:04.309Z,32.51
2022-08-17T09:28:12.136Z,32.52
2022-08-17T09:29:16.076Z,32.55
2022-08-17T09:30:17.940Z,32.57
2022-08-17T09:31:33.268Z,32.61
2022-08-17T09:32:41.097Z,32.74
2022-08-17T09:33:45.610Z,32.73
2022-08-17T09:34:53.097Z,32.77
2022-08-17T09:36:12.730Z,32.82
2022-08-17T09:37:19.946Z,32.78
2022-08-17T09:38:31.773Z,32.77
2022-08-17T09:39:55.316Z,32.88
2022-08-17T09:41:05.936Z,32.95
2022-08-17T09:42:21.308Z,32.99
2022-08-17T09:43:56.359Z,33.02
2022-08-17T09:45:15.800Z,32.99
2022-08-17T09:46:21.851Z,32.98
2022-08-17T09:47:35.501Z,32.98
2022-08-17T09:48:56.113Z,33.05
2022-08-17T09:50:08.714Z,33.10
2022-08-17T09:51:39.471Z,33.20
2022-08-17T09:52:42.882Z,33.22
2022-08-17T09:53:44.861Z,33.14
2022-08-17T09:54:48.009Z,33.17
2022-08-17T09:55:58.381Z,33.22
2022-08-17T09:57:28.481Z,33.22
2022-08-17T09:58:39.411Z,32.99
2022-08-17T10:00:07.579Z,32.83
2022-08-17T10:01:33.592Z,32.94
2022-08-17T10:02:56.592Z,32.90
2022-08-17T10:04:10.642Z,32.92
2022-08-17T10:05:41.465Z,32.91
2022-08-17T10:07:18.128Z,32.99
2022-08-17T10:08:48.983Z,33.00
2022-08-17T10:10:02.848Z,33.02
2022-08-17T10:11:22.392Z,33.10
2022-08-17T10:12:49.614Z,33.16
2022-08-17T10:14:12.517Z,33.32
2022-08-17T10:15:44.601Z,33.35
2022-08-17T10:16:56.239Z,33.38
2022-08-17T10:18:19.217Z,33.41
2022-08-17T10:19:48.983Z,33.49
2022-08-17T10:21:19.760Z,33.72
2022-08-17T10:22:38.158Z,33.84
2022-08-17T10:23:41.476Z,33.84
2022-08-17T10:25:21.282Z,33.87
2022-08-17T10:26:22.285Z,33.76
2022-08-17T10:27:36.301Z,33.69
2022-08-17T10:28:51.629Z,33.61
2022-08-17T10:30:02.514Z,33.63
2022-08-17T10:32:48.703Z,33.68
2022-08-17T10:33:56.249Z,33.72
2022-08-17T10:35:03.609Z,33.77
2022-08-17T10:36:35.563Z,33.82
2022-08-17T10:37:48.321Z,33.89
2022-08-17T10:39:02.901Z,33.81
2022-08-17T10:40:07.124Z,33.73
2022-08-17T10:41:19.067Z,33.75
2022-08-17T10:42:49.745Z,33.73
2022-08-17T10:44:38.549Z,33.73
2022-08-17T10:45:51.129Z,33.64
2022-08-17T10:47:15.869Z,33.74
2022-08-17T10:48:33.928Z,33.56
2022-08-17T10:49:37.839Z,33.36
2022-08-17T10:51:04.277Z,33.32
2022-08-17T10:52:20.771Z,33.33
2022-08-17T10:53:48.453Z,33.35
2022-08-17T10:54:56.713Z,33.38
2022-08-17T10:56:12.556Z,33.46
2022-08-17T10:57:29.069Z,33.47
2022-08-17T10:58:45.088Z,33.55
2022-08-17T10:59:49.187Z,33.68
2022-08-17T11:00:53.830Z,33.72
2022-08-17T11:02:01.113Z,33.71
2022-08-17T11:03:18.484Z,33.77
2022-08-17T11:04:34.251Z,33.78
2022-08-17T11:05:55.794Z,33.76
2022-08-17T11:07:03.329Z,33.72
2022-08-17T11:08:31.748Z,33.81
2022-08-17T11:09:42.489Z,33.69
2022-08-17T11:10:52.098Z,33.67
2022-08-17T11:12:15.273Z,33.68
2022-08-17T11:13:47.529Z,33.75
2022-08-17T11:14:56.295Z,33.76
2022-08-17T11:16:35.312Z,33.80
2022-08-17T11:18:08.700Z,33.92
2022-08-17T11:19:34.290Z,33.98
2022-08-17T11:20:59.007Z,34.04
2022-08-17T11:22:32.808Z,34.04
2022-08-17T11:23:52.699Z,34.10
2022-08-17T11:24:54.632Z,34.14
2022-08-17T11:26:02.010Z,34.10
2022-08-17T11:27:09.043Z,34.15
2022-08-17T11:28:18.555Z,34.02
2022-08-17T11:29:29.333Z,33.96
2022-08-17T11:30:53.333Z,33.78
2022-08-17T11:32:08.382Z,33.60
2022-08-17T11:33:36.885Z,33.51
2022-08-17T11:34:42.707Z,33.57
2022-08-17T11:35:51.122Z,33.68
2022-08-17T11:37:11.753Z,33.74
2022-08-17T11:38:28.503Z,33.76
2022-08-17T11:39:35.921Z,33.78
2022-08-17T11:40:52.728Z,33.70
2022-08-17T11:42:04.405Z,33.81
2022-08-17T11:43:27.116Z,33.83
2022-08-17T11:44:41.346Z,33.82
2022-08-17T11:46:06.426Z,33.84
2022-08-17T11:47:15.037Z,33.92
2022-08-17T11:48:35.486Z,34.02
2022-08-17T11:50:09.666Z,34.06
2022-08-17T11:51:20.318Z,33.97
2022-08-17T11:52:47.067Z,33.60
2022-08-17T11:54:21.599Z,33.65
2022-08-17T11:55:41.740Z,33.70
2022-08-17T11:56:48.641Z,33.86
2022-08-17T11:58:02.831Z,33.95
2022-08-17T11:59:33.004Z,34.09
2022-08-17T12:00:46.795Z,34.11
2022-08-17T12:01:54.300Z,34.09
2022-08-17T12:03:33.137Z,34.03
2022-08-17T12:04:35.767Z,34.03
2022-08-17T12:05:37.445Z,33.97
2022-08-17T12:06:45.232Z,33.98
2022-08-17T12:07:50.709Z,33.93
2022-08-17T12:08:58.086Z,33.81
2022-08-17T12:10:00.925Z,33.80
2022-08-17T12:12:11.196Z,33.77
2022-08-17T12:12:43.168Z,33.70
2022-08-17T12:13:49.197Z,33.64
2022-08-17T12:15:11.393Z,33.62
2022-08-17T12:16:16.312Z,33.64
2022-08-17T12:17:40.767Z,33.56
2022-08-17T12:18:57.228Z,33.70
2022-08-17T12:20:20.554Z,33.81
2022-08-17T12:21:34.945Z,33.85
2022-08-17T12:22:49.619Z,33.91
2022-08-17T12:24:09.235Z,33.91
2022-08-17T12:25:20.620Z,33.94
2022-08-17T12:26:26.757Z,33.98
2022-08-17T12:28:04.306Z,34.09
2022-08-17T12:29:01.110Z,34.12
2022-08-17T12:30:09.924Z,34.05
2022-08-17T12:31:35.449Z,33.91
2022-08-17T12:32:37.512Z,33.70
2022-08-17T12:33:44.037Z,33.70
2022-08-17T12:34:47.331Z,33.76
2022-08-17T12:35:49.040Z,33.69
2022-08-17T12:37:12.819Z,33.73
2022-08-17T12:38:26.797Z,33.85
2022-08-17T12:39:34.660Z,33.96
2022-08-17T12:40:36.556Z,34.06
2022-08-17T12:41:41.045Z,34.14
2022-08-17T12:43:04.042Z,34.17
2022-08-17T12:44:11.317Z,34.19
2022-08-17T12:45:28.481Z,34.21
2022-08-17T12:46:46.187Z,34.18
2022-08-17T12:47:47.766Z,34.11
2022-08-17T12:48:59.992Z,34.12
2022-08-17T12:50:29.014Z,34.08
2022-08-17T12:51:31.462Z,33.97
2022-08-17T12:52:33.070Z,33.98
2022-08-17T12:53:34.596Z,33.98
2022-08-17T12:54:49.686Z,33.99
2022-08-17T12:55:51.929Z,33.89
2022-08-17T12:56:54.013Z,33.83
2022-08-17T12:57:57.548Z,33.77
2022-08-17T12:59:01.080Z,33.65
2022-08-17T13:00:15.155Z,33.52
2022-08-17T13:01:17.526Z,33.58
2022-08-17T13:02:26.025Z,33.71
2022-08-17T13:03:36.178Z,33.81
2022-08-17T13:04:40.085Z,33.88
2022-08-17T13:05:53.747Z,33.76
2022-08-17T13:06:59.776Z,33.84
2022-08-17T13:08:23.281Z,33.84
2022-08-17T13:09:35.476Z,33.92
2022-08-17T13:10:43.688Z,33.97
2022-08-17T13:11:53.406Z,34.02
2022-08-17T13:12:55.457Z,34.00
2022-08-17T13:14:09.211Z,33.94
2022-08-17T13:15:37.344Z,33.72
2022-08-17T13:16:50.533Z,33.66
2022-08-17T13:17:59.630Z,33.62
2022-08-17T13:19:12.147Z,33.56
2022-08-17T13:20:15.056Z,33.48
2022-08-17T13:21:19.545Z,33.60
2022-08-17T13:22:26.561Z,33.73
2022-08-17T13:23:29.632Z,33.78
2022-08-17T13:24:38.240Z,33.75
2022-08-17T13:25:40.255Z,33.76
2022-08-17T13:26:44.007Z,33.85
2022-08-17T13:27:49.796Z,33.95
2022-08-17T13:28:51.575Z,34.03
2022-08-17T13:29:59.919Z,34.04
2022-08-17T13:31:20.969Z,34.14
2022-08-17T13:32:33.786Z,34.17
2022-08-17T13:33:44.770Z,34.22
2022-08-17T13:35:13.051Z,34.20
2022-08-17T13:36:13.375Z,34.20
2022-08-17T13:37:21.489Z,34.25
2022-08-17T13:38:39.222Z,34.21
2022-08-17T13:39:41.822Z,34.22
2022-08-17T13:40:50.261Z,34.23
2022-08-17T13:41:53.977Z,34.20
2022-08-17T13:42:56.527Z,34.17
2022-08-17T13:43:58.028Z,34.13
2022-08-17T13:45:00.924Z,34.09
2022-08-17T13:46:12.187Z,34.11
2022-08-17T13:47:17.942Z,34.01
2022-08-17T13:48:26.763Z,33.85
2022-08-17T13:49:48.317Z,33.84
2022-08-17T13:50:56.804Z,33.89
2022-08-17T13:51:58.478Z,33.97
2022-08-17T13:53:00.085Z,34.05
2022-08-17T13:54:05.382Z,33.97
2022-08-17T13:55:20.494Z,33.95
2022-08-17T13:56:39.773Z,33.84
2022-08-17T13:57:46.383Z,33.81
2022-08-17T13:59:02.355Z,33.87
2022-08-17T14:00:25.450Z,33.84
2022-08-17T14:01:41.305Z,33.81
2022-08-17T14:02:42.883Z,33.81
2022-08-17T14:03:44.418Z,33.82
2022-08-17T14:04:47.731Z,33.67
2022-08-17T14:05:51.689Z,33.62
2022-08-17T14:07:11.407Z,33.75
2022-08-17T14:08:15.266Z,33.74
2022-08-17T14:09:18.510Z,33.75
2022-08-17T14:10:23.495Z,33.78
2022-08-17T14:11:25.056Z,33.84
2022-08-17T14:12:28.969Z,33.89
2022-08-17T14:13:30.555Z,33.88
2022-08-17T14:14:32.231Z,33.92
2022-08-17T14:15:54.797Z,33.93
2022-08-17T14:16:56.962Z,33.89
2022-08-17T14:17:58.462Z,33.81
2022-08-17T14:18:59.961Z,33.71
2022-08-17T14:20:01.878Z,33.69
2022-08-17T14:21:03.788Z,33.75
2022-08-17T14:22:10.001Z,33.74
2022-08-17T14:23:11.606Z,33.75
2022-08-17T14:24:41.295Z,33.75
2022-08-17T14:25:46.073Z,33.81
2022-08-17T14:26:48.347Z,33.87
2022-08-17T14:27:53.422Z,33.94
2022-08-17T14:28:56.445Z,33.94
2022-08-17T14:29:58.791Z,33.98
2022-08-17T14:31:01.073Z,34.08
2022-08-17T14:32:13.079Z,34.02
2022-08-17T14:33:14.630Z,33.91
2022-08-17T14:34:16.141Z,33.96
2022-08-17T14:35:20.121Z,33.97
2022-08-17T14:36:21.666Z,34.08
2022-08-17T14:37:24.963Z,34.17
2022-08-17T14:38:26.460Z,34.15
2022-08-17T14:39:28.029Z,33.98
2022-08-17T14:40:29.576Z,33.96
2022-08-17T14:41:31.181Z,34.05
2022-08-17T14:42:36.058Z,34.06
2022-08-17T14:43:37.555Z,34.08
2022-08-17T14:44:39.451Z,34.04
2022-08-17T14:45:41.283Z,34.03
2022-08-17T14:46:44.404Z,34.07
2022-08-17T14:47:45.928Z,34.05
2022-08-17T14:48:47.428Z,34.06
2022-08-17T14:49:49.088Z,34.02
2022-08-17T14:50:50.694Z,33.98
2022-08-17T14:51:52.240Z,33.98
2022-08-17T14:52:53.737Z,33.99
2022-08-17T14:53:57.078Z,33.98
2022-08-17T14:54:58.625Z,33.87
2022-08-17T14:56:00.211Z,33.85
2022-08-17T14:57:24.873Z,33.86
2022-08-17T14:58:23.631Z,33.94
2022-08-17T14:59:25.306Z,33.97
2022-08-17T15:00:27.307Z,33.95
2022-08-17T15:01:28.936Z,33.89
2022-08-17T15:02:31.154Z,33.90